sensor_id;sensor_type;location;lat;lon;timestamp;P1;durP1;ratioP1;P2;durP2;ratioP2
47866;SDS011;33628;50.806;11.586;2023-05-24T00:02:33;11.38;;;3.75;;
47866;SDS011;33628;50.806;11.586;2023-05-24T00:14:39;16.20;;;3.95;;
47866;SDS011;33628;50.806;11.586;2023-05-24T00:18:23;7.40;;;3.45;;
47866;SDS011;33628;50.806;11.586;2023-05-24T00:24:15;12.98;;;4.10;;
47866;SDS011;33628;50.806;11.586;2023-05-24T00:27:01;18.02;;;4.30;;
47866;SDS011;33628;50.806;11.586;2023-05-24T00:32:29;13.10;;;4.07;;
47866;SDS011;33628;50.806;11.586;2023-05-24T00:34:57;9.55;;;3.90;;
47866;SDS011;33628;50.806;11.586;2023-05-24T00:37:24;10.15;;;3.47;;
47866;SDS011;33628;50.806;11.586;2023-05-24T00:39:52;10.32;;;3.90;;
47866;SDS011;33628;50.806;11.586;2023-05-24T00:42:18;17.17;;;4.00;;
47866;SDS011;33628;50.806;11.586;2023-05-24T00:44:45;11.35;;;3.92;;
47866;SDS011;33628;50.806;11.586;2023-05-24T00:47:12;12.63;;;3.58;;
47866;SDS011;33628;50.806;11.586;2023-05-24T00:49:39;12.32;;;4.25;;
47866;SDS011;33628;50.806;11.586;2023-05-24T00:52:07;10.95;;;3.92;;
47866;SDS011;33628;50.806;11.586;2023-05-24T00:54:34;10.15;;;4.05;;
47866;SDS011;33628;50.806;11.586;2023-05-24T00:57:00;12.95;;;4.25;;
47866;SDS011;33628;50.806;11.586;2023-05-24T00:59:27;8.80;;;3.97;;
47866;SDS011;33628;50.806;11.586;2023-05-24T01:01:54;9.70;;;3.95;;
47866;SDS011;33628;50.806;11.586;2023-05-24T01:04:21;11.88;;;4.15;;
47866;SDS011;33628;50.806;11.586;2023-05-24T01:06:51;13.88;;;4.38;;
47866;SDS011;33628;50.806;11.586;2023-05-24T01:09:30;11.27;;;4.22;;
47866;SDS011;33628;50.806;11.586;2023-05-24T01:12:02;14.73;;;4.00;;
47866;SDS011;33628;50.806;11.586;2023-05-24T01:14:38;7.00;;;3.63;;
47866;SDS011;33628;50.806;11.586;2023-05-24T01:17:11;7.43;;;3.20;;
47866;SDS011;33628;50.806;11.586;2023-05-24T01:19:53;10.63;;;3.88;;
47866;SDS011;33628;50.806;11.586;2023-05-24T01:22:36;11.43;;;3.40;;
47866;SDS011;33628;50.806;11.586;2023-05-24T01:25:11;14.40;;;4.03;;
47866;SDS011;33628;50.806;11.586;2023-05-24T01:27:44;9.77;;;3.88;;
47866;SDS011;33628;50.806;11.586;2023-05-24T01:30:12;11.52;;;3.78;;
47866;SDS011;33628;50.806;11.586;2023-05-24T01:32:39;8.48;;;3.20;;
47866;SDS011;33628;50.806;11.586;2023-05-24T01:35:06;8.73;;;3.30;;
47866;SDS011;33628;50.806;11.586;2023-05-24T01:37:34;8.95;;;2.90;;
47866;SDS011;33628;50.806;11.586;2023-05-24T01:40:01;17.60;;;3.25;;
47866;SDS011;33628;50.806;11.586;2023-05-24T01:42:31;10.82;;;3.38;;
47866;SDS011;33628;50.806;11.586;2023-05-24T01:45:05;21.50;;;4.35;;
47866;SDS011;33628;50.806;11.586;2023-05-24T01:47:38;10.65;;;3.13;;
47866;SDS011;33628;50.806;11.586;2023-05-24T01:50:16;8.13;;;3.10;;
47866;SDS011;33628;50.806;11.586;2023-05-24T01:52:45;12.50;;;2.90;;
47866;SDS011;33628;50.806;11.586;2023-05-24T01:55:12;5.15;;;2.53;;
47866;SDS011;33628;50.806;11.586;2023-05-24T01:57:40;13.63;;;3.00;;
47866;SDS011;33628;50.806;11.586;2023-05-24T02:00:12;8.95;;;2.65;;
47866;SDS011;33628;50.806;11.586;2023-05-24T02:02:40;9.30;;;2.25;;
47866;SDS011;33628;50.806;11.586;2023-05-24T02:05:06;14.98;;;2.75;;
47866;SDS011;33628;50.806;11.586;2023-05-24T02:07:34;13.27;;;2.83;;
47866;SDS011;33628;50.806;11.586;2023-05-24T02:10:00;21.63;;;2.72;;
47866;SDS011;33628;50.806;11.586;2023-05-24T02:12:28;12.02;;;2.70;;
47866;SDS011;33628;50.806;11.586;2023-05-24T02:14:54;11.95;;;2.67;;
47866;SDS011;33628;50.806;11.586;2023-05-24T02:17:23;11.20;;;2.63;;
47866;SDS011;33628;50.806;11.586;2023-05-24T02:19:51;10.70;;;3.00;;
47866;SDS011;33628;50.806;11.586;2023-05-24T02:22:18;12.48;;;2.63;;
47866;SDS011;33628;50.806;11.586;2023-05-24T02:24:47;11.98;;;3.03;;
47866;SDS011;33628;50.806;11.586;2023-05-24T02:27:13;8.50;;;2.88;;
47866;SDS011;33628;50.806;11.586;2023-05-24T02:29:40;13.57;;;2.90;;
47866;SDS011;33628;50.806;11.586;2023-05-24T02:32:07;19.40;;;2.92;;
47866;SDS011;33628;50.806;11.586;2023-05-24T02:34:35;13.70;;;2.88;;
47866;SDS011;33628;50.806;11.586;2023-05-24T02:37:02;11.23;;;2.63;;
47866;SDS011;33628;50.806;11.586;2023-05-24T02:39:29;11.65;;;2.88;;
47866;SDS011;33628;50.806;11.586;2023-05-24T02:41:56;10.32;;;2.97;;
47866;SDS011;33628;50.806;11.586;2023-05-24T02:44:23;13.30;;;2.92;;
47866;SDS011;33628;50.806;11.586;2023-05-24T02:46:50;12.02;;;2.70;;
47866;SDS011;33628;50.806;11.586;2023-05-24T02:49:16;14.18;;;3.05;;
47866;SDS011;33628;50.806;11.586;2023-05-24T02:51:44;12.40;;;3.40;;
47866;SDS011;33628;50.806;11.586;2023-05-24T02:54:11;19.10;;;2.92;;
47866;SDS011;33628;50.806;11.586;2023-05-24T02:56:38;12.43;;;2.90;;
47866;SDS011;33628;50.806;11.586;2023-05-24T02:59:05;17.20;;;2.92;;
47866;SDS011;33628;50.806;11.586;2023-05-24T03:01:32;10.77;;;2.40;;
47866;SDS011;33628;50.806;11.586;2023-05-24T03:03:59;12.73;;;2.58;;
47866;SDS011;33628;50.806;11.586;2023-05-24T03:06:26;15.48;;;2.75;;
47866;SDS011;33628;50.806;11.586;2023-05-24T03:08:54;10.15;;;2.47;;
47866;SDS011;33628;50.806;11.586;2023-05-24T03:11:23;11.57;;;2.83;;
47866;SDS011;33628;50.806;11.586;2023-05-24T03:13:51;13.02;;;3.05;;
47866;SDS011;33628;50.806;11.586;2023-05-24T03:16:17;11.70;;;2.35;;
47866;SDS011;33628;50.806;11.586;2023-05-24T03:18:46;13.43;;;2.85;;
47866;SDS011;33628;50.806;11.586;2023-05-24T03:21:16;11.43;;;2.53;;
47866;SDS011;33628;50.806;11.586;2023-05-24T03:23:45;14.77;;;2.55;;
47866;SDS011;33628;50.806;11.586;2023-05-24T03:26:13;18.13;;;2.65;;
47866;SDS011;33628;50.806;11.586;2023-05-24T03:28:40;16.63;;;2.95;;
47866;SDS011;33628;50.806;11.586;2023-05-24T03:31:07;15.55;;;2.83;;
47866;SDS011;33628;50.806;11.586;2023-05-24T03:33:36;16.38;;;3.10;;
47866;SDS011;33628;50.806;11.586;2023-05-24T03:36:03;17.13;;;3.47;;
47866;SDS011;33628;50.806;11.586;2023-05-24T03:38:30;12.50;;;2.83;;
47866;SDS011;33628;50.806;11.586;2023-05-24T03:40:58;13.00;;;2.78;;
47866;SDS011;33628;50.806;11.586;2023-05-24T03:43:29;15.63;;;2.90;;
47866;SDS011;33628;50.806;11.586;2023-05-24T03:46:00;13.20;;;2.90;;
47866;SDS011;33628;50.806;11.586;2023-05-24T03:48:26;10.13;;;3.08;;
47866;SDS011;33628;50.806;11.586;2023-05-24T03:50:53;13.73;;;3.30;;
47866;SDS011;33628;50.806;11.586;2023-05-24T03:53:20;14.52;;;2.95;;
47866;SDS011;33628;50.806;11.586;2023-05-24T03:55:46;13.43;;;3.03;;
47866;SDS011;33628;50.806;11.586;2023-05-24T03:58:13;14.32;;;3.15;;
47866;SDS011;33628;50.806;11.586;2023-05-24T04:00:41;10.23;;;3.20;;
47866;SDS011;33628;50.806;11.586;2023-05-24T04:03:08;17.63;;;3.10;;
47866;SDS011;33628;50.806;11.586;2023-05-24T04:05:35;13.00;;;2.90;;
47866;SDS011;33628;50.806;11.586;2023-05-24T04:08:03;15.93;;;2.95;;
47866;SDS011;33628;50.806;11.586;2023-05-24T04:10:30;16.73;;;3.10;;
47866;SDS011;33628;50.806;11.586;2023-05-24T04:12:56;12.75;;;2.95;;
47866;SDS011;33628;50.806;11.586;2023-05-24T04:15:23;14.65;;;2.92;;
47866;SDS011;33628;50.806;11.586;2023-05-24T04:17:51;16.05;;;3.88;;
47866;SDS011;33628;50.806;11.586;2023-05-24T04:20:20;11.70;;;2.63;;
47866;SDS011;33628;50.806;11.586;2023-05-24T04:22:52;11.65;;;2.63;;
47866;SDS011;33628;50.806;11.586;2023-05-24T04:25:19;18.20;;;2.70;;
47866;SDS011;33628;50.806;11.586;2023-05-24T04:27:46;15.43;;;2.97;;
47866;SDS011;33628;50.806;11.586;2023-05-24T04:30:13;13.38;;;2.58;;
47866;SDS011;33628;50.806;11.586;2023-05-24T04:32:43;14.35;;;2.72;;
47866;SDS011;33628;50.806;11.586;2023-05-24T04:35:11;15.93;;;2.20;;
47866;SDS011;33628;50.806;11.586;2023-05-24T04:37:39;13.73;;;3.10;;
47866;SDS011;33628;50.806;11.586;2023-05-24T04:40:06;13.02;;;2.60;;
47866;SDS011;33628;50.806;11.586;2023-05-24T04:42:33;12.80;;;2.65;;
47866;SDS011;33628;50.806;11.586;2023-05-24T04:45:00;13.57;;;3.45;;
47866;SDS011;33628;50.806;11.586;2023-05-24T04:47:27;13.65;;;2.75;;
47866;SDS011;33628;50.806;11.586;2023-05-24T04:49:53;12.30;;;3.08;;
47866;SDS011;33628;50.806;11.586;2023-05-24T04:52:21;15.60;;;3.15;;
47866;SDS011;33628;50.806;11.586;2023-05-24T04:54:48;10.43;;;2.80;;
47866;SDS011;33628;50.806;11.586;2023-05-24T04:57:16;19.17;;;3.47;;
47866;SDS011;33628;50.806;11.586;2023-05-24T04:59:43;16.45;;;2.97;;
47866;SDS011;33628;50.806;11.586;2023-05-24T05:02:09;20.20;;;3.53;;
47866;SDS011;33628;50.806;11.586;2023-05-24T05:04:36;10.55;;;2.35;;
47866;SDS011;33628;50.806;11.586;2023-05-24T05:07:03;11.95;;;3.10;;
47866;SDS011;33628;50.806;11.586;2023-05-24T05:09:31;21.00;;;3.42;;
47866;SDS011;33628;50.806;11.586;2023-05-24T05:11:58;11.63;;;2.70;;
47866;SDS011;33628;50.806;11.586;2023-05-24T05:14:25;10.18;;;2.70;;
47866;SDS011;33628;50.806;11.586;2023-05-24T05:16:51;14.82;;;2.75;;
47866;SDS011;33628;50.806;11.586;2023-05-24T05:19:18;13.98;;;2.97;;
47866;SDS011;33628;50.806;11.586;2023-05-24T05:21:44;12.23;;;2.88;;
47866;SDS011;33628;50.806;11.586;2023-05-24T05:24:11;15.18;;;3.33;;
47866;SDS011;33628;50.806;11.586;2023-05-24T05:26:41;15.07;;;2.85;;
47866;SDS011;33628;50.806;11.586;2023-05-24T05:29:09;11.43;;;2.50;;
47866;SDS011;33628;50.806;11.586;2023-05-24T05:31:36;8.13;;;2.40;;
47866;SDS011;33628;50.806;11.586;2023-05-24T05:34:04;15.07;;;2.78;;
47866;SDS011;33628;50.806;11.586;2023-05-24T05:36:34;16.35;;;2.83;;
47866;SDS011;33628;50.806;11.586;2023-05-24T05:39:05;14.07;;;2.90;;
47866;SDS011;33628;50.806;11.586;2023-05-24T05:41:41;15.80;;;3.28;;
47866;SDS011;33628;50.806;11.586;2023-05-24T05:44:10;18.92;;;3.05;;
47866;SDS011;33628;50.806;11.586;2023-05-24T05:46:37;16.60;;;3.58;;
47866;SDS011;33628;50.806;11.586;2023-05-24T05:49:04;12.23;;;3.60;;
47866;SDS011;33628;50.806;11.586;2023-05-24T05:51:31;18.60;;;3.60;;
47866;SDS011;33628;50.806;11.586;2023-05-24T05:53:58;18.17;;;4.38;;
47866;SDS011;33628;50.806;11.586;2023-05-24T05:56:24;15.38;;;3.38;;
47866;SDS011;33628;50.806;11.586;2023-05-24T05:58:53;21.23;;;3.63;;
47866;SDS011;33628;50.806;11.586;2023-05-24T06:01:20;16.30;;;3.58;;
47866;SDS011;33628;50.806;11.586;2023-05-24T06:03:51;14.48;;;3.50;;
47866;SDS011;33628;50.806;11.586;2023-05-24T06:06:18;19.98;;;3.60;;
47866;SDS011;33628;50.806;11.586;2023-05-24T06:08:44;13.10;;;2.90;;
47866;SDS011;33628;50.806;11.586;2023-05-24T06:11:11;15.57;;;3.28;;
47866;SDS011;33628;50.806;11.586;2023-05-24T06:18:00;17.90;;;4.10;;
47866;SDS011;33628;50.806;11.586;2023-05-24T06:20:27;21.63;;;4.07;;
47866;SDS011;33628;50.806;11.586;2023-05-24T06:22:53;18.75;;;3.22;;
47866;SDS011;33628;50.806;11.586;2023-05-24T06:25:21;15.23;;;3.70;;
47866;SDS011;33628;50.806;11.586;2023-05-24T06:27:49;15.18;;;3.40;;
47866;SDS011;33628;50.806;11.586;2023-05-24T06:30:16;15.63;;;3.92;;
47866;SDS011;33628;50.806;11.586;2023-05-24T06:32:43;13.05;;;3.25;;
47866;SDS011;33628;50.806;11.586;2023-05-24T06:35:11;16.02;;;3.33;;
47866;SDS011;33628;50.806;11.586;2023-05-24T06:37:38;20.60;;;4.30;;
47866;SDS011;33628;50.806;11.586;2023-05-24T06:40:05;15.32;;;3.30;;
47866;SDS011;33628;50.806;11.586;2023-05-24T06:42:34;15.38;;;3.40;;
47866;SDS011;33628;50.806;11.586;2023-05-24T06:48:23;16.23;;;3.20;;
47866;SDS011;33628;50.806;11.586;2023-05-24T06:53:26;17.27;;;3.60;;
47866;SDS011;33628;50.806;11.586;2023-05-24T06:55:53;19.83;;;3.80;;
47866;SDS011;33628;50.806;11.586;2023-05-24T06:58:21;12.88;;;3.53;;
47866;SDS011;33628;50.806;11.586;2023-05-24T07:00:48;16.05;;;3.17;;
47866;SDS011;33628;50.806;11.586;2023-05-24T07:07:22;17.52;;;3.25;;
47866;SDS011;33628;50.806;11.586;2023-05-24T07:09:51;11.15;;;3.20;;
47866;SDS011;33628;50.806;11.586;2023-05-24T07:12:17;13.40;;;3.25;;
47866;SDS011;33628;50.806;11.586;2023-05-24T07:14:44;17.52;;;3.40;;
47866;SDS011;33628;50.806;11.586;2023-05-24T07:17:12;16.15;;;3.08;;
47866;SDS011;33628;50.806;11.586;2023-05-24T07:19:39;14.57;;;3.63;;
47866;SDS011;33628;50.806;11.586;2023-05-24T07:22:06;15.05;;;3.40;;
47866;SDS011;33628;50.806;11.586;2023-05-24T07:24:33;16.23;;;3.22;;
47866;SDS011;33628;50.806;11.586;2023-05-24T07:27:02;11.77;;;2.92;;
47866;SDS011;33628;50.806;11.586;2023-05-24T07:29:30;11.73;;;2.80;;
47866;SDS011;33628;50.806;11.586;2023-05-24T07:31:57;13.52;;;2.97;;
47866;SDS011;33628;50.806;11.586;2023-05-24T07:34:25;12.10;;;2.85;;
47866;SDS011;33628;50.806;11.586;2023-05-24T07:36:54;21.50;;;4.30;;
47866;SDS011;33628;50.806;11.586;2023-05-24T07:39:23;19.33;;;4.05;;
47866;SDS011;33628;50.806;11.586;2023-05-24T07:41:52;17.65;;;3.45;;
47866;SDS011;33628;50.806;11.586;2023-05-24T07:44:20;17.65;;;4.03;;
47866;SDS011;33628;50.806;11.586;2023-05-24T07:46:50;15.07;;;3.05;;
47866;SDS011;33628;50.806;11.586;2023-05-24T07:49:17;15.75;;;3.38;;
47866;SDS011;33628;50.806;11.586;2023-05-24T07:51:45;14.52;;;3.03;;
47866;SDS011;33628;50.806;11.586;2023-05-24T07:54:16;16.15;;;2.90;;
47866;SDS011;33628;50.806;11.586;2023-05-24T07:56:43;15.18;;;3.15;;
47866;SDS011;33628;50.806;11.586;2023-05-24T07:59:09;14.65;;;3.35;;
47866;SDS011;33628;50.806;11.586;2023-05-24T08:01:37;14.57;;;3.75;;
47866;SDS011;33628;50.806;11.586;2023-05-24T08:04:05;15.30;;;3.25;;
47866;SDS011;33628;50.806;11.586;2023-05-24T08:06:34;15.65;;;3.45;;
47866;SDS011;33628;50.806;11.586;2023-05-24T08:09:01;16.45;;;4.50;;
47866;SDS011;33628;50.806;11.586;2023-05-24T08:11:29;16.23;;;3.35;;
47866;SDS011;33628;50.806;11.586;2023-05-24T08:13:56;14.77;;;3.25;;
47866;SDS011;33628;50.806;11.586;2023-05-24T08:16:23;16.90;;;3.00;;
47866;SDS011;33628;50.806;11.586;2023-05-24T08:18:52;14.13;;;2.88;;
47866;SDS011;33628;50.806;11.586;2023-05-24T08:21:18;9.98;;;2.90;;
47866;SDS011;33628;50.806;11.586;2023-05-24T08:23:46;14.75;;;3.38;;
47866;SDS011;33628;50.806;11.586;2023-05-24T08:26:12;15.15;;;3.83;;
47866;SDS011;33628;50.806;11.586;2023-05-24T08:28:41;14.90;;;3.40;;
47866;SDS011;33628;50.806;11.586;2023-05-24T08:31:08;15.88;;;3.30;;
47866;SDS011;33628;50.806;11.586;2023-05-24T08:33:34;16.20;;;3.78;;
47866;SDS011;33628;50.806;11.586;2023-05-24T08:36:02;12.00;;;3.22;;
47866;SDS011;33628;50.806;11.586;2023-05-24T08:38:29;13.23;;;3.35;;
47866;SDS011;33628;50.806;11.586;2023-05-24T08:40:56;13.02;;;2.88;;
47866;SDS011;33628;50.806;11.586;2023-05-24T08:43:22;10.82;;;3.40;;
47866;SDS011;33628;50.806;11.586;2023-05-24T08:45:50;12.45;;;3.00;;
47866;SDS011;33628;50.806;11.586;2023-05-24T08:48:17;16.20;;;3.33;;
47866;SDS011;33628;50.806;11.586;2023-05-24T08:50:44;17.27;;;3.53;;
47866;SDS011;33628;50.806;11.586;2023-05-24T08:53:13;14.30;;;3.05;;
47866;SDS011;33628;50.806;11.586;2023-05-24T08:55:39;12.25;;;2.95;;
47866;SDS011;33628;50.806;11.586;2023-05-24T08:58:08;10.02;;;2.97;;
47866;SDS011;33628;50.806;11.586;2023-05-24T09:00:35;9.57;;;2.78;;
47866;SDS011;33628;50.806;11.586;2023-05-24T09:03:02;11.48;;;3.08;;
47866;SDS011;33628;50.806;11.586;2023-05-24T09:05:31;15.52;;;3.00;;
47866;SDS011;33628;50.806;11.586;2023-05-24T09:07:59;20.05;;;3.47;;
47866;SDS011;33628;50.806;11.586;2023-05-24T09:10:27;13.77;;;3.53;;
47866;SDS011;33628;50.806;11.586;2023-05-24T09:12:55;12.00;;;2.88;;
47866;SDS011;33628;50.806;11.586;2023-05-24T09:15:22;11.25;;;2.90;;
47866;SDS011;33628;50.806;11.586;2023-05-24T09:17:49;11.18;;;2.45;;
47866;SDS011;33628;50.806;11.586;2023-05-24T09:20:16;9.73;;;2.67;;
47866;SDS011;33628;50.806;11.586;2023-05-24T09:22:44;10.52;;;2.75;;
47866;SDS011;33628;50.806;11.586;2023-05-24T09:25:13;7.55;;;2.47;;
47866;SDS011;33628;50.806;11.586;2023-05-24T09:27:43;10.95;;;3.05;;
47866;SDS011;33628;50.806;11.586;2023-05-24T09:30:14;8.98;;;2.65;;
47866;SDS011;33628;50.806;11.586;2023-05-24T09:32:43;9.45;;;2.17;;
47866;SDS011;33628;50.806;11.586;2023-05-24T09:35:19;10.65;;;2.35;;
47866;SDS011;33628;50.806;11.586;2023-05-24T09:37:46;13.05;;;2.88;;
47866;SDS011;33628;50.806;11.586;2023-05-24T09:40:16;10.57;;;2.60;;
47866;SDS011;33628;50.806;11.586;2023-05-24T09:42:45;10.55;;;3.10;;
47866;SDS011;33628;50.806;11.586;2023-05-24T09:45:16;13.57;;;3.40;;
47866;SDS011;33628;50.806;11.586;2023-05-24T09:47:42;7.88;;;2.55;;
47866;SDS011;33628;50.806;11.586;2023-05-24T09:50:11;9.07;;;2.83;;
47866;SDS011;33628;50.806;11.586;2023-05-24T09:52:38;14.23;;;2.92;;
47866;SDS011;33628;50.806;11.586;2023-05-24T09:55:11;13.25;;;3.10;;
47866;SDS011;33628;50.806;11.586;2023-05-24T09:57:38;14.80;;;3.35;;
47866;SDS011;33628;50.806;11.586;2023-05-24T10:00:08;11.23;;;2.47;;
47866;SDS011;33628;50.806;11.586;2023-05-24T10:02:43;14.52;;;3.10;;
47866;SDS011;33628;50.806;11.586;2023-05-24T10:05:10;18.08;;;3.15;;
47866;SDS011;33628;50.806;11.586;2023-05-24T10:07:38;9.60;;;3.03;;
47866;SDS011;33628;50.806;11.586;2023-05-24T10:10:07;10.38;;;2.83;;
47866;SDS011;33628;50.806;11.586;2023-05-24T10:12:34;16.75;;;3.85;;
47866;SDS011;33628;50.806;11.586;2023-05-24T10:15:02;13.77;;;2.88;;
47866;SDS011;33628;50.806;11.586;2023-05-24T10:17:30;15.23;;;3.03;;
47866;SDS011;33628;50.806;11.586;2023-05-24T10:19:57;12.88;;;3.63;;
47866;SDS011;33628;50.806;11.586;2023-05-24T10:22:24;10.18;;;2.55;;
47866;SDS011;33628;50.806;11.586;2023-05-24T10:24:52;13.57;;;3.08;;
47866;SDS011;33628;50.806;11.586;2023-05-24T10:27:27;13.52;;;2.67;;
47866;SDS011;33628;50.806;11.586;2023-05-24T10:29:57;11.18;;;2.85;;
47866;SDS011;33628;50.806;11.586;2023-05-24T10:32:31;13.90;;;3.40;;
47866;SDS011;33628;50.806;11.586;2023-05-24T10:34:59;10.43;;;2.83;;
47866;SDS011;33628;50.806;11.586;2023-05-24T10:37:26;13.15;;;2.85;;
47866;SDS011;33628;50.806;11.586;2023-05-24T10:39:53;12.48;;;2.30;;
47866;SDS011;33628;50.806;11.586;2023-05-24T10:42:20;9.13;;;2.55;;
47866;SDS011;33628;50.806;11.586;2023-05-24T10:44:46;11.27;;;3.25;;
47866;SDS011;33628;50.806;11.586;2023-05-24T10:47:13;9.43;;;2.80;;
47866;SDS011;33628;50.806;11.586;2023-05-24T10:49:48;10.20;;;2.83;;
47866;SDS011;33628;50.806;11.586;2023-05-24T10:52:19;10.80;;;2.63;;
47866;SDS011;33628;50.806;11.586;2023-05-24T10:55:01;8.02;;;2.78;;
47866;SDS011;33628;50.806;11.586;2023-05-24T10:57:29;13.07;;;2.78;;
47866;SDS011;33628;50.806;11.586;2023-05-24T11:02:58;12.73;;;2.40;;
47866;SDS011;33628;50.806;11.586;2023-05-24T11:05:32;10.90;;;2.40;;
47866;SDS011;33628;50.806;11.586;2023-05-24T11:07:59;10.98;;;2.50;;
47866;SDS011;33628;50.806;11.586;2023-05-24T11:10:28;12.18;;;3.38;;
47866;SDS011;33628;50.806;11.586;2023-05-24T11:12:56;9.85;;;2.55;;
47866;SDS011;33628;50.806;11.586;2023-05-24T11:15:23;10.15;;;2.80;;
47866;SDS011;33628;50.806;11.586;2023-05-24T11:20:40;11.20;;;2.53;;
47866;SDS011;33628;50.806;11.586;2023-05-24T11:23:07;9.95;;;2.45;;
47866;SDS011;33628;50.806;11.586;2023-05-24T11:25:35;5.90;;;2.00;;
47866;SDS011;33628;50.806;11.586;2023-05-24T11:28:02;9.25;;;2.67;;
47866;SDS011;33628;50.806;11.586;2023-05-24T11:30:31;10.68;;;2.50;;
47866;SDS011;33628;50.806;11.586;2023-05-24T11:32:58;10.07;;;2.42;;
47866;SDS011;33628;50.806;11.586;2023-05-24T11:35:27;8.85;;;2.15;;
47866;SDS011;33628;50.806;11.586;2023-05-24T11:37:56;11.50;;;2.45;;
47866;SDS011;33628;50.806;11.586;2023-05-24T11:40:23;9.10;;;2.58;;
47866;SDS011;33628;50.806;11.586;2023-05-24T11:42:50;8.93;;;2.35;;
47866;SDS011;33628;50.806;11.586;2023-05-24T11:45:17;7.88;;;2.22;;
47866;SDS011;33628;50.806;11.586;2023-05-24T11:47:45;12.32;;;2.47;;
47866;SDS011;33628;50.806;11.586;2023-05-24T11:50:14;7.70;;;2.42;;
47866;SDS011;33628;50.806;11.586;2023-05-24T11:52:42;12.57;;;2.70;;
47866;SDS011;33628;50.806;11.586;2023-05-24T11:55:11;6.53;;;2.42;;
47866;SDS011;33628;50.806;11.586;2023-05-24T11:57:40;6.50;;;2.33;;
47866;SDS011;33628;50.806;11.586;2023-05-24T12:00:09;11.30;;;2.72;;
47866;SDS011;33628;50.806;11.586;2023-05-24T12:02:41;6.63;;;2.30;;
47866;SDS011;33628;50.806;11.586;2023-05-24T12:05:09;5.53;;;2.17;;
47866;SDS011;33628;50.806;11.586;2023-05-24T12:07:37;9.63;;;2.80;;
47866;SDS011;33628;50.806;11.586;2023-05-24T12:10:05;14.07;;;3.15;;
47866;SDS011;33628;50.806;11.586;2023-05-24T12:12:34;11.98;;;2.58;;
47866;SDS011;33628;50.806;11.586;2023-05-24T12:15:01;6.55;;;2.00;;
47866;SDS011;33628;50.806;11.586;2023-05-24T12:17:30;12.38;;;2.55;;
47866;SDS011;33628;50.806;11.586;2023-05-24T12:19:57;6.18;;;2.10;;
47866;SDS011;33628;50.806;11.586;2023-05-24T12:22:25;14.10;;;2.72;;
47866;SDS011;33628;50.806;11.586;2023-05-24T12:24:52;11.73;;;2.67;;
47866;SDS011;33628;50.806;11.586;2023-05-24T12:27:19;10.05;;;2.30;;
47866;SDS011;33628;50.806;11.586;2023-05-24T12:29:52;9.00;;;2.17;;
47866;SDS011;33628;50.806;11.586;2023-05-24T12:32:19;9.45;;;2.38;;
47866;SDS011;33628;50.806;11.586;2023-05-24T12:34:48;9.73;;;2.28;;
47866;SDS011;33628;50.806;11.586;2023-05-24T12:37:15;8.02;;;2.20;;
47866;SDS011;33628;50.806;11.586;2023-05-24T12:39:43;10.38;;;2.35;;
47866;SDS011;33628;50.806;11.586;2023-05-24T12:42:10;10.13;;;2.72;;
47866;SDS011;33628;50.806;11.586;2023-05-24T12:44:38;11.35;;;2.70;;
47866;SDS011;33628;50.806;11.586;2023-05-24T12:47:06;9.93;;;2.45;;
47866;SDS011;33628;50.806;11.586;2023-05-24T12:49:33;9.48;;;2.72;;
47866;SDS011;33628;50.806;11.586;2023-05-24T12:52:00;13.48;;;2.38;;
47866;SDS011;33628;50.806;11.586;2023-05-24T12:54:27;8.82;;;2.15;;
47866;SDS011;33628;50.806;11.586;2023-05-24T12:56:55;11.35;;;2.55;;
47866;SDS011;33628;50.806;11.586;2023-05-24T12:59:21;7.57;;;2.17;;
47866;SDS011;33628;50.806;11.586;2023-05-24T13:01:48;8.73;;;2.55;;
47866;SDS011;33628;50.806;11.586;2023-05-24T13:04:18;8.82;;;2.25;;
47866;SDS011;33628;50.806;11.586;2023-05-24T13:06:46;11.32;;;2.53;;
47866;SDS011;33628;50.806;11.586;2023-05-24T13:09:13;7.63;;;2.00;;
47866;SDS011;33628;50.806;11.586;2023-05-24T13:11:40;10.65;;;2.22;;
47866;SDS011;33628;50.806;11.586;2023-05-24T13:14:07;8.20;;;2.40;;
47866;SDS011;33628;50.806;11.586;2023-05-24T13:16:36;8.70;;;2.15;;
47866;SDS011;33628;50.806;11.586;2023-05-24T13:19:02;10.02;;;2.20;;
47866;SDS011;33628;50.806;11.586;2023-05-24T13:21:30;7.15;;;1.92;;
47866;SDS011;33628;50.806;11.586;2023-05-24T13:23:57;10.35;;;3.00;;
47866;SDS011;33628;50.806;11.586;2023-05-24T13:26:24;13.35;;;3.22;;
47866;SDS011;33628;50.806;11.586;2023-05-24T13:28:51;12.02;;;2.90;;
47866;SDS011;33628;50.806;11.586;2023-05-24T13:31:17;12.05;;;3.50;;
47866;SDS011;33628;50.806;11.586;2023-05-24T13:33:44;8.90;;;2.38;;
47866;SDS011;33628;50.806;11.586;2023-05-24T13:36:11;12.50;;;2.80;;
47866;SDS011;33628;50.806;11.586;2023-05-24T13:38:39;15.30;;;2.47;;
47866;SDS011;33628;50.806;11.586;2023-05-24T13:41:06;9.38;;;2.67;;
47866;SDS011;33628;50.806;11.586;2023-05-24T13:43:32;10.48;;;2.80;;
47866;SDS011;33628;50.806;11.586;2023-05-24T13:46:00;13.57;;;2.50;;
47866;SDS011;33628;50.806;11.586;2023-05-24T13:48:26;12.15;;;2.90;;
47866;SDS011;33628;50.806;11.586;2023-05-24T13:50:53;15.75;;;3.30;;
47866;SDS011;33628;50.806;11.586;2023-05-24T13:53:20;11.32;;;2.95;;
47866;SDS011;33628;50.806;11.586;2023-05-24T13:55:49;17.85;;;2.85;;
47866;SDS011;33628;50.806;11.586;2023-05-24T13:58:16;16.70;;;3.58;;
47866;SDS011;33628;50.806;11.586;2023-05-24T14:00:42;12.93;;;2.97;;
47866;SDS011;33628;50.806;11.586;2023-05-24T14:03:09;9.40;;;2.90;;
47866;SDS011;33628;50.806;11.586;2023-05-24T14:05:37;13.57;;;2.83;;
47866;SDS011;33628;50.806;11.586;2023-05-24T14:08:06;9.00;;;2.42;;
47866;SDS011;33628;50.806;11.586;2023-05-24T14:10:33;11.82;;;3.15;;
47866;SDS011;33628;50.806;11.586;2023-05-24T14:13:02;10.00;;;2.33;;
47866;SDS011;33628;50.806;11.586;2023-05-24T14:15:29;10.20;;;2.88;;
47866;SDS011;33628;50.806;11.586;2023-05-24T14:17:56;9.32;;;2.42;;
47866;SDS011;33628;50.806;11.586;2023-05-24T14:20:25;16.10;;;2.72;;
47866;SDS011;33628;50.806;11.586;2023-05-24T14:22:52;14.82;;;5.13;;
47866;SDS011;33628;50.806;11.586;2023-05-24T14:25:19;10.95;;;2.67;;
47866;SDS011;33628;50.806;11.586;2023-05-24T14:27:45;12.88;;;2.95;;
47866;SDS011;33628;50.806;11.586;2023-05-24T14:30:13;16.08;;;2.92;;
47866;SDS011;33628;50.806;11.586;2023-05-24T14:32:40;17.05;;;3.10;;
47866;SDS011;33628;50.806;11.586;2023-05-24T14:35:07;8.88;;;2.75;;
47866;SDS011;33628;50.806;11.586;2023-05-24T14:37:34;12.80;;;3.00;;
47866;SDS011;33628;50.806;11.586;2023-05-24T14:40:01;9.02;;;2.40;;
47866;SDS011;33628;50.806;11.586;2023-05-24T14:42:32;9.18;;;2.35;;
47866;SDS011;33628;50.806;11.586;2023-05-24T14:44:59;11.75;;;2.67;;
47866;SDS011;33628;50.806;11.586;2023-05-24T14:47:28;12.60;;;2.75;;
47866;SDS011;33628;50.806;11.586;2023-05-24T14:49:55;14.82;;;2.90;;
47866;SDS011;33628;50.806;11.586;2023-05-24T14:52:22;14.70;;;3.03;;
47866;SDS011;33628;50.806;11.586;2023-05-24T14:59:09;9.57;;;2.30;;
47866;SDS011;33628;50.806;11.586;2023-05-24T15:01:39;11.70;;;2.30;;
47866;SDS011;33628;50.806;11.586;2023-05-24T15:04:07;11.05;;;3.05;;
47866;SDS011;33628;50.806;11.586;2023-05-24T15:06:34;8.65;;;2.35;;
47866;SDS011;33628;50.806;11.586;2023-05-24T15:09:01;12.88;;;2.83;;
47866;SDS011;33628;50.806;11.586;2023-05-24T15:11:30;10.63;;;3.08;;